createdAt,value
2023-04-18T00:03:58.475Z,5.87
2023-04-18T00:18:54.174Z,5.88
2023-04-18T00:33:50.606Z,5.33
2023-04-18T00:48:46.460Z,4.73
2023-04-18T01:03:42.958Z,5.01
2023-04-18T01:18:39.123Z,4.65
2023-04-18T01:33:34.967Z,4.16
2023-04-18T01:48:30.532Z,4.16
2023-04-18T02:03:26.948Z,4.14
2023-04-18T02:18:22.840Z,3.87
2023-04-18T02:33:18.767Z,3.98
2023-04-18T02:48:14.935Z,3.52
2023-04-18T03:03:11.464Z,3.84
2023-04-18T03:18:07.714Z,3.94
2023-04-18T03:33:03.264Z,3.95
2023-04-18T03:47:59.244Z,3.81
2023-04-18T04:02:55.626Z,3.95
2023-04-18T04:17:52.111Z,3.65
2023-04-18T04:32:48.118Z,3.6
2023-04-18T04:47:44.611Z,4.1
2023-04-18T05:02:41.187Z,4.29
2023-04-18T05:17:37.860Z,4.77
2023-04-18T05:32:34.267Z,5.21
2023-04-18T05:47:31.035Z,5.82
2023-04-18T06:02:27.856Z,6.53
2023-04-18T06:17:24.586Z,7.23
2023-04-18T06:32:20.714Z,7.27
2023-04-18T06:47:16.809Z,7.89
2023-04-18T07:02:13.601Z,8.72
2023-04-18T07:17:10.245Z,9.25
2023-04-18T07:32:08.439Z,9.79
2023-04-18T07:47:03.791Z,10.38
2023-04-18T08:02:00.161Z,10.76
2023-04-18T08:16:57.371Z,10.63
2023-04-18T08:31:53.957Z,11.56
2023-04-18T08:46:50.551Z,11.44
2023-04-18T09:01:47.059Z,11.05
2023-04-18T09:16:43.744Z,11.11
2023-04-18T09:31:39.907Z,12.17
2023-04-18T09:46:37.247Z,12.55
2023-04-18T10:01:33.024Z,12.56
2023-04-18T10:16:29.602Z,12.99
2023-04-18T10:31:25.614Z,13.33
2023-04-18T10:46:31.565Z,13
2023-04-18T11:01:18.443Z,13.25
2023-04-18T11:16:14.075Z,13.54
2023-04-18T11:31:10.778Z,14.36
2023-04-18T11:46:07.725Z,14.62
2023-04-18T12:01:04.508Z,16.8
2023-04-18T12:16:01.448Z,17.08
2023-04-18T12:30:58.213Z,16.22
2023-04-18T12:45:54.460Z,16.24
2023-04-18T13:00:51.107Z,15.24
2023-04-18T13:15:46.804Z,15.47
2023-04-18T13:30:42.748Z,15.52
2023-04-18T13:45:38.559Z,16.29
2023-04-18T14:00:34.957Z,16.26
2023-04-18T14:15:31.492Z,16.12
2023-04-18T14:30:27.198Z,16.04
2023-04-18T14:45:23.524Z,16.41
2023-04-18T15:00:20.669Z,16.54
2023-04-18T15:15:16.674Z,17.08
2023-04-18T15:30:12.683Z,16.83
2023-04-18T15:45:09.115Z,16.69
2023-04-18T16:00:04.657Z,16.86
2023-04-18T16:15:00.815Z,17.46
2023-04-18T16:29:57.436Z,16.81
2023-04-18T16:44:53.317Z,17.58
2023-04-18T16:59:49.844Z,16.69
2023-04-18T17:14:45.671Z,16.8
2023-04-18T17:29:42.033Z,15.6
2023-04-18T17:44:37.196Z,14.79
2023-04-18T17:59:32.462Z,14.19
2023-04-18T18:14:28.150Z,13.81
2023-04-18T18:29:23.848Z,13.37
2023-04-18T18:44:20.290Z,13.06
2023-04-18T18:59:16.271Z,12.99
2023-04-18T19:14:12.020Z,13.36
2023-04-18T19:29:07.907Z,12.99
2023-04-18T19:44:04.147Z,12.96
2023-04-18T19:58:59.821Z,13.03
2023-04-18T20:13:55.786Z,12.58
2023-04-18T20:28:51.645Z,13.15
2023-04-18T20:43:48.225Z,13.07
2023-04-18T20:58:44.250Z,13.07
2023-04-18T21:13:40.408Z,13.17
2023-04-18T21:28:36.860Z,13.01
2023-04-18T21:43:32.745Z,12.62
2023-04-18T21:58:28.987Z,12.76
2023-04-18T22:13:25.057Z,12.73
2023-04-18T22:28:20.963Z,12.5
2023-04-18T22:43:17.259Z,12.56
2023-04-18T22:58:12.514Z,12.67
2023-04-18T23:13:08.656Z,12.31
2023-04-18T23:28:04.630Z,12.41
2023-04-18T23:43:00.778Z,12.23
2023-04-18T23:57:57.119Z,12.2
